createdAt,value
2018-07-20T00:01:57.198Z,4.63
2018-07-20T00:04:24.079Z,4.47
2018-07-20T00:06:50.960Z,4.90
2018-07-20T00:09:17.859Z,4.67
2018-07-20T00:11:44.736Z,5.70
2018-07-20T00:14:11.602Z,5.27
2018-07-20T00:16:38.492Z,5.50
2018-07-20T00:19:05.315Z,5.23
2018-07-20T00:21:32.260Z,5.20
2018-07-20T00:23:59.118Z,4.77
2018-07-20T00:26:26.032Z,5.17
2018-07-20T00:28:52.943Z,5.40
2018-07-20T00:31:19.818Z,5.47
2018-07-20T00:33:46.655Z,4.90
2018-07-20T00:36:13.502Z,5.83
2018-07-20T00:38:40.350Z,6.00
2018-07-20T00:41:07.367Z,5.50
2018-07-20T00:43:34.384Z,5.33
2018-07-20T00:46:01.291Z,5.80
2018-07-20T00:48:28.184Z,5.60
2018-07-20T00:50:55.103Z,5.47
2018-07-20T00:53:22.028Z,5.07
2018-07-20T00:55:48.983Z,5.20
2018-07-20T00:58:15.859Z,5.90
2018-07-20T01:00:42.742Z,5.87
2018-07-20T01:03:09.591Z,6.50
2018-07-20T01:05:36.444Z,6.30
2018-07-20T01:08:03.440Z,6.37
2018-07-20T01:10:30.323Z,6.97
2018-07-20T01:15:03.879Z,6.43
2018-07-20T01:17:30.759Z,6.37
2018-07-20T01:19:57.661Z,6.90
2018-07-20T01:22:24.523Z,7.17
2018-07-20T01:24:52.472Z,6.20
2018-07-20T01:27:19.314Z,6.43
2018-07-20T01:29:46.251Z,7.33
2018-07-20T01:32:19.373Z,7.37
2018-07-20T01:34:46.272Z,6.17
2018-07-20T01:37:13.147Z,6.43
2018-07-20T01:39:40.071Z,6.57
2018-07-20T01:42:07.188Z,7.10
2018-07-20T01:44:34.058Z,6.83
2018-07-20T01:47:00.906Z,7.90
2018-07-20T01:49:27.799Z,6.87
2018-07-20T01:51:54.660Z,6.63
2018-07-20T01:54:21.522Z,7.10
2018-07-20T01:56:48.411Z,6.90
2018-07-20T01:59:15.327Z,5.93
2018-07-20T02:01:42.195Z,6.30
2018-07-20T02:04:10.083Z,6.30
2018-07-20T02:06:36.988Z,5.77
2018-07-20T02:09:06.831Z,7.20
2018-07-20T02:11:33.724Z,6.60
2018-07-20T02:14:00.595Z,6.90
2018-07-20T02:16:27.551Z,7.40
2018-07-20T02:18:54.424Z,7.20
2018-07-20T02:21:21.278Z,7.37
2018-07-20T02:23:48.144Z,7.23
2018-07-20T02:26:15.052Z,6.80
2018-07-20T02:28:41.909Z,7.00
2018-07-20T02:31:08.822Z,7.30
2018-07-20T02:33:35.859Z,7.72
2018-07-20T02:36:02.824Z,7.90
2018-07-20T02:38:29.711Z,7.40
2018-07-20T02:40:56.592Z,7.70
2018-07-20T02:43:24.518Z,8.30
2018-07-20T02:45:51.387Z,7.03
2018-07-20T02:48:18.250Z,7.30
2018-07-20T02:50:45.124Z,7.77
2018-07-20T02:53:12.628Z,7.97
2018-07-20T02:55:39.480Z,7.30
2018-07-20T02:58:06.431Z,7.60
2018-07-20T03:00:33.354Z,7.20
2018-07-20T03:03:00.811Z,7.90
2018-07-20T03:05:27.676Z,7.83
2018-07-20T03:07:54.547Z,8.10
2018-07-20T03:10:22.262Z,7.83
2018-07-20T03:12:49.128Z,7.90
2018-07-20T03:15:16.011Z,7.43
2018-07-20T03:17:42.884Z,8.50
2018-07-20T03:20:09.763Z,7.97
2018-07-20T03:22:37.639Z,7.97
2018-07-20T03:25:04.523Z,7.73
2018-07-20T03:27:31.395Z,8.73
2018-07-20T03:29:58.251Z,8.00
2018-07-20T03:32:25.603Z,7.83
2018-07-20T03:34:53.207Z,7.07
2018-07-20T03:37:20.092Z,8.47
2018-07-20T03:39:47.571Z,7.07
2018-07-20T03:42:14.466Z,8.40
2018-07-20T03:44:41.359Z,7.60
2018-07-20T03:47:08.239Z,8.10
2018-07-20T03:49:35.261Z,7.60
2018-07-20T03:52:02.122Z,7.53
2018-07-20T03:54:28.987Z,8.10
2018-07-20T03:56:55.866Z,7.77
2018-07-20T03:59:23.732Z,8.03
2018-07-20T04:01:50.620Z,7.20
2018-07-20T04:04:17.484Z,7.87
2018-07-20T04:06:44.347Z,7.10
2018-07-20T04:09:11.414Z,8.00
2018-07-20T04:11:38.418Z,7.10
2018-07-20T04:14:05.327Z,6.93
2018-07-20T04:16:32.196Z,7.97
2018-07-20T04:18:59.076Z,8.40
2018-07-20T04:21:26.029Z,8.58
2018-07-20T04:23:52.890Z,8.30
2018-07-20T04:26:19.760Z,8.20
2018-07-20T04:28:49.646Z,6.80
2018-07-20T04:31:16.612Z,7.57
2018-07-20T04:33:43.499Z,7.40
2018-07-20T04:36:10.375Z,6.80
2018-07-20T04:38:37.230Z,6.27
2018-07-20T04:41:04.091Z,6.77
2018-07-20T04:43:30.955Z,6.70
2018-07-20T04:45:58.824Z,6.30
2018-07-20T04:48:25.687Z,6.37
2018-07-20T04:50:52.579Z,6.60
2018-07-20T04:53:19.463Z,6.83
2018-07-20T04:55:46.355Z,6.33
2018-07-20T04:58:13.231Z,6.90
2018-07-20T05:00:40.099Z,6.10
2018-07-20T05:03:07.023Z,6.60
2018-07-20T05:05:33.882Z,7.17
2018-07-20T05:08:00.754Z,6.93
2018-07-20T05:10:27.626Z,6.23
2018-07-20T05:12:54.524Z,7.53
2018-07-20T05:15:21.471Z,6.60
2018-07-20T05:17:48.368Z,6.73
2018-07-20T05:20:15.257Z,7.10
2018-07-20T05:22:42.127Z,6.30
2018-07-20T05:25:08.980Z,6.40
2018-07-20T05:27:35.839Z,6.27
2018-07-20T05:30:02.759Z,6.20
2018-07-20T05:32:29.631Z,6.50
2018-07-20T05:34:56.500Z,6.03
2018-07-20T05:37:23.421Z,5.60
2018-07-20T05:39:50.270Z,5.63
2018-07-20T05:42:17.127Z,5.37
2018-07-20T05:44:44.009Z,5.03
2018-07-20T05:47:11.135Z,5.77
2018-07-20T05:49:38.008Z,6.27
2018-07-20T05:52:04.935Z,5.30
2018-07-20T05:54:31.843Z,5.50
2018-07-20T05:56:58.738Z,5.40
2018-07-20T05:59:25.602Z,6.05
2018-07-20T06:01:52.475Z,5.70
2018-07-20T06:04:19.351Z,5.70
2018-07-20T06:06:46.252Z,5.57
2018-07-20T06:09:13.111Z,6.30
2018-07-20T06:11:40.196Z,5.40
2018-07-20T06:14:07.702Z,5.20
2018-07-20T06:16:34.522Z,5.07
2018-07-20T06:19:01.596Z,4.63
2018-07-20T06:21:28.460Z,5.30
2018-07-20T06:23:55.375Z,5.40
2018-07-20T06:26:22.283Z,5.78
2018-07-20T06:28:49.167Z,5.10
2018-07-20T06:31:16.132Z,5.03
2018-07-20T06:33:43.015Z,5.00
2018-07-20T06:36:09.917Z,5.30
2018-07-20T06:38:36.783Z,4.77
2018-07-20T06:41:03.651Z,5.60
2018-07-20T06:43:30.771Z,5.67
2018-07-20T06:45:58.014Z,6.00
2018-07-20T06:48:24.924Z,5.53
2018-07-20T06:50:51.803Z,5.80
2018-07-20T06:53:18.660Z,5.33
2018-07-20T06:55:45.573Z,5.47
2018-07-20T06:58:12.406Z,4.90
2018-07-20T07:00:39.297Z,5.00
2018-07-20T07:03:06.183Z,4.93
2018-07-20T07:05:33.045Z,5.13
2018-07-20T07:07:59.958Z,4.90
2018-07-20T07:10:26.856Z,5.57
2018-07-20T07:12:53.728Z,5.60
2018-07-20T07:15:21.451Z,5.40
2018-07-20T07:17:48.311Z,4.90
2018-07-20T07:20:15.171Z,5.47
2018-07-20T07:22:42.054Z,4.80
2018-07-20T07:25:08.954Z,4.67
2018-07-20T07:27:35.851Z,4.60
2018-07-20T07:30:02.752Z,5.03
2018-07-20T07:32:29.624Z,4.90
2018-07-20T07:34:56.540Z,4.73
2018-07-20T07:37:24.423Z,4.70
2018-07-20T07:39:51.295Z,4.60
2018-07-20T07:42:18.224Z,4.53
2018-07-20T07:44:45.081Z,4.23
2018-07-20T07:47:12.003Z,5.00
2018-07-20T07:49:38.978Z,4.10
2018-07-20T07:52:06.107Z,4.53
2018-07-20T07:54:32.983Z,4.30
2018-07-20T07:56:59.871Z,4.93
2018-07-20T07:59:26.815Z,4.47
2018-07-20T08:01:53.709Z,4.20
2018-07-20T08:04:20.616Z,4.60
2018-07-20T08:06:47.514Z,3.90
2018-07-20T08:09:14.467Z,4.60
2018-07-20T08:11:42.327Z,4.17
2018-07-20T08:14:10.449Z,4.20
2018-07-20T08:16:37.306Z,4.90
2018-07-20T08:19:04.454Z,4.10
2018-07-20T08:21:31.339Z,3.80
2018-07-20T08:23:58.211Z,5.10
2018-07-20T08:26:25.123Z,3.90
2018-07-20T08:28:51.996Z,3.83
2018-07-20T08:31:18.869Z,4.03
2018-07-20T08:33:45.769Z,4.20
2018-07-20T08:36:12.631Z,4.20
2018-07-20T08:38:39.520Z,4.80
2018-07-20T08:41:06.479Z,3.60
2018-07-20T08:43:33.300Z,4.03
2018-07-20T08:46:00.248Z,4.00
2018-07-20T08:48:27.138Z,3.60
2018-07-20T08:50:54.021Z,4.20
2018-07-20T08:53:20.911Z,4.03
2018-07-20T08:55:47.824Z,4.60
2018-07-20T08:58:14.754Z,4.70
2018-07-20T09:00:42.543Z,4.90
2018-07-20T09:03:09.411Z,4.50
2018-07-20T09:05:36.364Z,4.00
2018-07-20T09:08:03.256Z,4.10
2018-07-20T09:10:30.135Z,3.87
2018-07-20T09:12:57.031Z,3.60
2018-07-20T09:15:23.912Z,3.60
2018-07-20T09:17:50.814Z,3.77
2018-07-20T09:20:17.747Z,3.67
2018-07-20T09:22:44.623Z,3.30
2018-07-20T09:25:11.495Z,4.43
2018-07-20T09:27:41.392Z,3.37
2018-07-20T09:30:08.288Z,3.33
2018-07-20T09:32:35.148Z,3.77
2018-07-20T09:35:02.035Z,3.70
2018-07-20T09:37:28.899Z,3.70
2018-07-20T09:39:55.763Z,3.40
2018-07-20T09:42:22.624Z,2.97
2018-07-20T09:44:49.524Z,4.10
2018-07-20T09:47:16.402Z,3.40
2018-07-20T09:49:43.331Z,3.70
2018-07-20T09:52:10.311Z,4.47
2018-07-20T09:54:37.177Z,4.00
2018-07-20T09:57:07.136Z,3.35
2018-07-20T09:59:34.064Z,3.60
2018-07-20T10:02:00.908Z,3.40
2018-07-20T10:04:27.832Z,3.13
2018-07-20T10:06:54.675Z,3.37
2018-07-20T10:09:21.541Z,3.93
2018-07-20T10:11:48.407Z,3.20
2018-07-20T10:14:15.302Z,3.20
2018-07-20T10:16:42.163Z,3.43
2018-07-20T10:19:13.217Z,3.50
2018-07-20T10:21:39.992Z,3.97
2018-07-20T10:24:06.859Z,3.63
2018-07-20T10:26:33.763Z,4.10
2018-07-20T10:29:00.849Z,3.97
2018-07-20T10:31:27.775Z,3.63
2018-07-20T10:33:55.646Z,3.10
2018-07-20T10:36:22.531Z,3.70
2018-07-20T10:38:49.415Z,3.20
2018-07-20T10:41:16.279Z,3.20
2018-07-20T10:43:43.163Z,3.23
2018-07-20T10:46:10.067Z,3.03
2018-07-20T10:48:37.022Z,3.57
2018-07-20T10:51:03.897Z,3.90
2018-07-20T10:53:30.763Z,3.57
2018-07-20T10:56:01.444Z,3.73
2018-07-20T10:58:29.115Z,3.47
2018-07-20T11:00:56.037Z,3.52
2018-07-20T11:03:22.946Z,3.67
2018-07-20T11:05:49.823Z,3.37
2018-07-20T11:08:16.780Z,3.40
2018-07-20T11:10:43.643Z,3.47
2018-07-20T11:13:10.551Z,3.10
2018-07-20T11:15:37.482Z,3.30
2018-07-20T11:18:04.483Z,3.50
2018-07-20T11:20:31.393Z,3.37
2018-07-20T11:22:58.278Z,3.60
2018-07-20T11:25:25.139Z,3.30
2018-07-20T11:27:52.034Z,3.13
2018-07-20T11:30:18.927Z,3.13
2018-07-20T11:32:45.793Z,3.33
2018-07-20T11:35:12.683Z,3.60
2018-07-20T11:37:39.562Z,3.37
2018-07-20T11:40:06.408Z,3.27
2018-07-20T11:42:33.281Z,3.07
2018-07-20T11:45:00.228Z,3.00
2018-07-20T11:47:27.103Z,3.13
2018-07-20T11:49:53.968Z,3.33
2018-07-20T11:52:20.878Z,3.53
2018-07-20T11:54:47.807Z,2.87
2018-07-20T11:57:14.654Z,3.37
2018-07-20T11:59:41.523Z,3.67
2018-07-20T12:02:08.391Z,3.13
2018-07-20T12:04:35.261Z,3.27
2018-07-20T12:07:02.468Z,3.03
2018-07-20T12:09:29.320Z,4.87
2018-07-20T12:11:56.183Z,2.53
2018-07-20T12:14:24.103Z,3.20
2018-07-20T12:16:50.995Z,2.60
2018-07-20T12:19:17.880Z,2.57
2018-07-20T12:21:44.779Z,2.50
2018-07-20T12:24:11.675Z,3.30
2018-07-20T12:26:38.550Z,3.10
2018-07-20T12:29:05.415Z,3.23
2018-07-20T12:31:32.304Z,3.63
2018-07-20T12:33:59.186Z,3.17
2018-07-20T12:36:26.033Z,3.03
2018-07-20T12:38:52.935Z,2.77
2018-07-20T12:41:19.875Z,2.60
2018-07-20T12:43:46.675Z,3.00
2018-07-20T12:46:13.583Z,2.90
2018-07-20T12:48:40.470Z,2.70
2018-07-20T12:51:07.443Z,3.10
2018-07-20T12:53:34.380Z,2.73
2018-07-20T12:56:01.292Z,2.93
2018-07-20T12:58:28.190Z,2.90
2018-07-20T13:00:55.072Z,3.17
2018-07-20T13:03:22.044Z,2.90
2018-07-20T13:05:48.935Z,3.00
2018-07-20T13:08:15.758Z,2.80
2018-07-20T13:10:42.643Z,3.00
2018-07-20T13:13:09.490Z,3.23
2018-07-20T13:15:36.379Z,2.90
2018-07-20T13:18:03.351Z,3.00
2018-07-20T13:20:30.158Z,2.83
2018-07-20T13:23:00.030Z,3.40
2018-07-20T13:25:26.965Z,3.50
2018-07-20T13:27:53.824Z,2.97
2018-07-20T13:30:21.343Z,3.20
2018-07-20T13:32:48.225Z,2.90
2018-07-20T13:35:15.123Z,2.70
2018-07-20T13:37:41.979Z,2.60
2018-07-20T13:40:08.830Z,3.30
2018-07-20T13:42:35.716Z,3.27
2018-07-20T13:45:02.666Z,2.90
2018-07-20T13:47:29.546Z,3.00
2018-07-20T13:49:56.408Z,3.13
2018-07-20T13:52:23.343Z,3.13
2018-07-20T13:54:50.545Z,2.83
2018-07-20T13:57:17.400Z,3.10
2018-07-20T13:59:44.282Z,3.00
2018-07-20T14:02:11.206Z,2.60
2018-07-20T14:04:38.113Z,2.53
2018-07-20T14:07:05.003Z,3.17
2018-07-20T14:09:31.879Z,2.90
2018-07-20T14:11:59.044Z,2.80
2018-07-20T14:14:26.084Z,3.47
2018-07-20T14:16:53.087Z,2.87
2018-07-20T14:19:20.292Z,2.83
2018-07-20T14:21:47.455Z,3.03
2018-07-20T14:24:14.462Z,2.60
2018-07-20T14:26:41.487Z,3.00
2018-07-20T14:29:08.519Z,2.90
2018-07-20T14:31:35.638Z,3.03
2018-07-20T14:34:02.531Z,3.20
2018-07-20T14:36:29.564Z,2.73
2018-07-20T14:38:56.672Z,3.10
2018-07-20T14:41:23.859Z,3.37
2018-07-20T14:43:50.887Z,3.20
2018-07-20T14:46:17.887Z,3.17
2018-07-20T14:48:44.911Z,2.67
2018-07-20T14:51:11.979Z,3.30
2018-07-20T14:53:38.974Z,3.20
2018-07-20T14:56:06.667Z,3.30
2018-07-20T14:58:34.571Z,3.10
2018-07-20T15:01:01.590Z,3.03
2018-07-20T15:03:28.652Z,2.30
2018-07-20T15:05:55.689Z,2.80
2018-07-20T15:08:22.699Z,3.10
2018-07-20T15:10:49.688Z,3.20
2018-07-20T15:13:16.727Z,3.10
2018-07-20T15:15:43.741Z,2.77
2018-07-20T15:18:10.751Z,2.90
2018-07-20T15:20:37.746Z,3.17
2018-07-20T15:23:04.975Z,2.67
2018-07-20T15:25:31.976Z,3.03
2018-07-20T15:27:58.977Z,3.30
2018-07-20T15:30:26.036Z,3.30
2018-07-20T15:32:53.067Z,2.83
2018-07-20T15:35:20.057Z,2.87
2018-07-20T15:37:47.139Z,3.10
2018-07-20T15:40:14.175Z,2.70
2018-07-20T15:42:41.183Z,3.08
2018-07-20T15:45:08.267Z,3.00
2018-07-20T15:47:36.094Z,3.07
2018-07-20T15:50:03.498Z,2.80
2018-07-20T15:54:57.716Z,2.60
2018-07-20T15:57:25.714Z,2.90
2018-07-20T15:59:52.835Z,2.83
2018-07-20T16:02:20.390Z,3.30
2018-07-20T16:04:47.412Z,3.00
2018-07-20T16:07:15.439Z,2.90
2018-07-20T16:09:42.467Z,2.90
2018-07-20T16:12:09.759Z,3.00
2018-07-20T16:14:36.767Z,3.13
2018-07-20T16:17:03.801Z,2.67
2018-07-20T16:19:30.809Z,2.80
2018-07-20T16:21:57.816Z,2.60
2018-07-20T16:24:24.827Z,2.50
2018-07-20T16:26:51.847Z,3.07
2018-07-20T16:29:18.847Z,2.43
2018-07-20T16:31:45.877Z,2.73
2018-07-20T16:34:12.887Z,2.40
2018-07-20T16:36:39.943Z,2.47
2018-07-20T16:39:07.889Z,3.50
2018-07-20T16:41:34.887Z,3.37
2018-07-20T16:44:01.906Z,2.90
2018-07-20T16:46:28.918Z,2.43
2018-07-20T16:48:55.921Z,3.30
2018-07-20T16:51:22.935Z,2.87
2018-07-20T16:53:49.952Z,2.77
2018-07-20T16:56:17.006Z,2.80
2018-07-20T16:58:44.098Z,2.77
2018-07-20T17:01:11.082Z,3.20
2018-07-20T17:03:38.127Z,2.60
2018-07-20T17:06:05.182Z,2.87
2018-07-20T17:08:32.209Z,3.30
2018-07-20T17:10:59.223Z,2.90
2018-07-20T17:13:26.282Z,3.03
2018-07-20T17:15:53.462Z,2.80
2018-07-20T17:18:20.468Z,3.87
2018-07-20T17:20:47.504Z,3.60
2018-07-20T17:23:15.536Z,3.10
2018-07-20T17:25:42.583Z,3.23
2018-07-20T17:28:09.621Z,3.00
2018-07-20T17:30:36.568Z,3.17
2018-07-20T17:33:04.551Z,3.40
2018-07-20T17:35:31.552Z,3.40
2018-07-20T17:37:58.543Z,3.13
2018-07-20T17:40:25.542Z,3.67
2018-07-20T17:42:52.547Z,2.83
2018-07-20T17:45:19.564Z,2.97
2018-07-20T17:47:46.608Z,3.00
2018-07-20T17:50:13.719Z,3.35
2018-07-20T17:52:40.785Z,3.40
2018-07-20T17:55:08.672Z,2.90
2018-07-20T17:57:35.847Z,3.17
2018-07-20T18:00:03.177Z,3.17
2018-07-20T18:02:30.177Z,2.70
2018-07-20T18:04:57.244Z,3.10
2018-07-20T18:07:24.386Z,3.03
2018-07-20T18:09:51.382Z,4.03
2018-07-20T18:12:18.416Z,3.43
2018-07-20T18:14:45.415Z,3.20
2018-07-20T18:17:12.479Z,3.30
2018-07-20T18:19:39.480Z,3.57
2018-07-20T18:22:06.487Z,3.20
2018-07-20T18:24:33.521Z,4.00
2018-07-20T18:27:00.562Z,3.23
2018-07-20T18:29:28.303Z,6.10
2018-07-20T18:31:55.296Z,5.80
2018-07-20T18:34:22.291Z,4.43
2018-07-20T18:36:51.774Z,3.37
2018-07-20T18:39:18.867Z,3.23
2018-07-20T18:41:45.859Z,3.37
2018-07-20T18:44:12.935Z,3.65
2018-07-20T18:46:39.995Z,3.23
2018-07-20T18:49:06.988Z,3.53
2018-07-20T18:51:34.251Z,3.50
2018-07-20T18:54:01.247Z,3.27
2018-07-20T18:56:28.256Z,3.20
2018-07-20T18:58:55.234Z,3.80
2018-07-20T19:01:22.247Z,3.50
2018-07-20T19:03:49.231Z,4.10
2018-07-20T19:06:16.228Z,3.67
2018-07-20T19:08:43.314Z,3.80
2018-07-20T19:11:11.172Z,4.10
2018-07-20T19:13:38.196Z,4.20
2018-07-20T19:16:05.306Z,4.20
2018-07-20T19:18:36.134Z,3.30
2018-07-20T19:21:03.146Z,3.77
2018-07-20T19:23:30.255Z,4.20
2018-07-20T19:25:57.343Z,3.90
2018-07-20T19:28:24.440Z,4.50
2018-07-20T19:30:51.467Z,4.47
2018-07-20T19:33:18.503Z,3.70
2018-07-20T19:35:45.533Z,4.60
2018-07-20T19:38:12.572Z,4.67
2018-07-20T19:40:39.653Z,4.20
2018-07-20T19:43:06.676Z,4.90
2018-07-20T19:45:33.669Z,4.80
2018-07-20T19:48:00.688Z,4.90
2018-07-20T19:50:27.735Z,5.53
2018-07-20T19:52:54.747Z,5.70
2018-07-20T19:55:21.790Z,5.30
2018-07-20T19:57:48.838Z,5.20
2018-07-20T20:00:15.836Z,5.70
2018-07-20T20:02:43.615Z,4.70
2018-07-20T20:05:10.503Z,5.10
2018-07-20T20:07:37.487Z,5.80
2018-07-20T20:10:04.924Z,5.47
2018-07-20T20:12:31.983Z,4.80
2018-07-20T20:14:59.056Z,5.20
2018-07-20T20:17:26.061Z,6.10
2018-07-20T20:19:53.264Z,5.27
2018-07-20T20:22:20.251Z,4.73
2018-07-20T20:24:47.259Z,5.50
2018-07-20T20:27:14.270Z,5.20
2018-07-20T20:29:41.271Z,5.17
2018-07-20T20:32:08.283Z,5.30
2018-07-20T20:34:36.211Z,4.50
2018-07-20T20:37:03.225Z,4.87
2018-07-20T20:39:30.249Z,5.60
2018-07-20T20:41:57.215Z,5.23
2018-07-20T20:44:24.399Z,4.70
2018-07-20T20:46:51.398Z,5.57
2018-07-20T20:49:18.379Z,5.37
2018-07-20T20:51:45.376Z,5.10
2018-07-20T20:54:12.363Z,4.63
2018-07-20T20:56:39.362Z,5.30
2018-07-20T20:59:09.725Z,5.10
2018-07-20T21:01:36.776Z,4.47
2018-07-20T21:04:03.772Z,4.67
2018-07-20T21:06:30.752Z,4.80
2018-07-20T21:08:57.719Z,4.50
2018-07-20T21:11:24.704Z,5.70
2018-07-20T21:13:51.695Z,4.50
2018-07-20T21:16:18.746Z,5.33
2018-07-20T21:18:45.817Z,5.57
2018-07-20T21:21:12.824Z,4.40
2018-07-20T21:23:39.827Z,4.87
2018-07-20T21:26:06.871Z,5.10
2018-07-20T21:28:33.871Z,5.20
2018-07-20T21:31:00.852Z,5.10
2018-07-20T21:33:28.847Z,5.10
2018-07-20T21:35:55.831Z,4.17
2018-07-20T21:38:22.859Z,5.07
2018-07-20T21:40:49.887Z,4.63
2018-07-20T21:43:16.975Z,5.57
2018-07-20T21:45:44.871Z,4.97
2018-07-20T21:48:11.862Z,5.50
2018-07-20T21:50:38.832Z,5.60
2018-07-20T21:53:05.935Z,4.70
2018-07-20T21:55:32.974Z,5.73
2018-07-20T21:57:59.961Z,5.20
2018-07-20T22:00:26.915Z,5.77
2018-07-20T22:02:53.855Z,5.07
2018-07-20T22:05:20.819Z,4.90
2018-07-20T22:07:47.841Z,5.23
2018-07-20T22:10:14.798Z,5.40
2018-07-20T22:12:41.769Z,5.50
2018-07-20T22:15:09.111Z,4.93
2018-07-20T22:17:36.149Z,5.13
2018-07-20T22:20:04.084Z,5.10
2018-07-20T22:22:31.219Z,4.57
2018-07-20T22:24:58.207Z,5.07
2018-07-20T22:27:25.200Z,5.13
2018-07-20T22:29:52.196Z,5.00
2018-07-20T22:32:19.087Z,5.83
2018-07-20T22:34:46.022Z,5.70
2018-07-20T22:37:12.974Z,5.57
2018-07-20T22:39:39.931Z,5.93
2018-07-20T22:42:06.904Z,5.70
2018-07-20T22:44:33.879Z,5.70
2018-07-20T22:47:00.817Z,5.70
2018-07-20T22:49:27.768Z,5.27
2018-07-20T22:51:54.720Z,5.40
2018-07-20T22:54:21.676Z,5.13
2018-07-20T22:56:48.655Z,5.80
2018-07-20T22:59:15.600Z,5.43
2018-07-20T23:01:42.554Z,6.30
2018-07-20T23:04:09.544Z,5.80
2018-07-20T23:06:36.544Z,5.87
2018-07-20T23:09:06.747Z,5.90
2018-07-20T23:11:33.734Z,5.70
2018-07-20T23:14:00.679Z,5.70
2018-07-20T23:16:27.659Z,6.50
2018-07-20T23:18:54.664Z,6.30
2018-07-20T23:21:21.609Z,5.70
2018-07-20T23:23:48.543Z,6.70
2018-07-20T23:26:15.475Z,5.83
2018-07-20T23:28:42.476Z,5.73
2018-07-20T23:31:09.408Z,5.93
2018-07-20T23:33:36.395Z,6.17
2018-07-20T23:36:03.355Z,5.97
2018-07-20T23:38:30.535Z,6.10
2018-07-20T23:40:57.481Z,5.33
2018-07-20T23:43:24.415Z,6.50
2018-07-20T23:45:51.375Z,5.70
2018-07-20T23:48:18.326Z,6.40
2018-07-20T23:50:45.289Z,5.43
2018-07-20T23:53:12.223Z,6.83
2018-07-20T23:55:39.172Z,5.90
2018-07-20T23:58:06.161Z,5.50
